Time;durP1;ratioP1;P1;durP2;ratioP2;P2;SDS_P1;SDS_P2;PMS_P1;PMS_P2;Temp;Humidity;BMP_temperature;BMP_pressure;BME280_temperature;BME280_humidity;BME280_pressure;Samples;Min_cycle;Max_cycle;Signal;HPM_P1;HPM_P2
2022/03/16 00:00:22;;;;;;;35.17;19.02;;;;;;;;;;5007503;28;20694;-73
2022/03/16 00:02:49;;;;;;;30.15;19.65;;;;;;;;;;5015438;28;20055;-73
2022/03/16 00:05:19;;;;;;;31.58;19.25;;;;;;;;;;5016457;28;20564;-72
2022/03/16 00:07:46;;;;;;;34.13;19.35;;;;;;;;;;5015477;28;20068;-72
2022/03/16 00:10:12;;;;;;;29.45;18.25;;;;;;;;;;5013918;28;20045;-73
2022/03/16 00:12:39;;;;;;;30.05;18.17;;;;;;;;;;5015988;28;20037;-72
2022/03/16 00:15:07;;;;;;;28.10;18.73;;;;;;;;;;5015684;28;20702;-72
2022/03/16 00:17:35;;;;;;;32.50;19.83;;;;;;;;;;5015657;28;20644;-71
2022/03/16 00:20:01;;;;;;;34.60;19.63;;;;;;;;;;5016099;28;20029;-73
2022/03/16 00:22:27;;;;;;;36.05;20.83;;;;;;;;;;5015265;28;20029;-73
2022/03/16 00:24:52;;;;;;;37.42;21.00;;;;;;;;;;5015845;28;20053;-73
2022/03/16 00:27:17;;;;;;;36.60;21.38;;;;;;;;;;5014853;28;20032;-74
2022/03/16 00:29:43;;;;;;;42.90;23.45;;;;;;;;;;5014906;28;20021;-74
2022/03/16 00:32:08;;;;;;;34.53;22.77;;;;;;;;;;4991872;28;20247;-73
2022/03/16 00:34:36;;;;;;;37.45;22.83;;;;;;;;;;5013817;28;20037;-74
2022/03/16 00:37:02;;;;;;;35.72;22.85;;;;;;;;;;5010182;28;20122;-73
2022/03/16 00:39:27;;;;;;;39.05;23.90;;;;;;;;;;5014600;28;20124;-72
2022/03/16 00:41:55;;;;;;;34.60;23.10;;;;;;;;;;5013942;28;20128;-73
2022/03/16 00:44:20;;;;;;;41.40;24.85;;;;;;;;;;5013184;28;20152;-71
2022/03/16 00:46:46;;;;;;;40.53;24.48;;;;;;;;;;5014446;28;20496;-72
2022/03/16 00:49:11;;;;;;;44.85;25.90;;;;;;;;;;5025529;28;20030;-73
2022/03/16 00:51:38;;;;;;;39.90;23.83;;;;;;;;;;5015616;28;20045;-73
2022/03/16 00:54:04;;;;;;;36.72;23.38;;;;;;;;;;5015219;28;20318;-73
2022/03/16 00:56:29;;;;;;;43.17;26.27;;;;;;;;;;5015730;28;20290;-72
2022/03/16 00:58:55;;;;;;;50.22;27.73;;;;;;;;;;5007678;28;20124;-75
2022/03/16 01:01:20;;;;;;;44.50;25.75;;;;;;;;;;5014274;28;20033;-73
2022/03/16 01:03:48;;;;;;;44.20;23.88;;;;;;;;;;5015199;28;20125;-74
2022/03/16 01:06:15;;;;;;;37.85;23.00;;;;;;;;;;5015468;28;20365;-73
2022/03/16 01:08:45;;;;;;;41.25;22.38;;;;;;;;;;5014800;28;20052;-74
2022/03/16 01:11:11;;;;;;;33.03;20.13;;;;;;;;;;5015350;28;20091;-73
2022/03/16 01:13:37;;;;;;;32.90;19.33;;;;;;;;;;5014201;28;20280;-73
2022/03/16 01:16:02;;;;;;;31.13;19.70;;;;;;;;;;5015659;28;20104;-74
2022/03/16 01:18:28;;;;;;;32.45;20.23;;;;;;;;;;5015131;28;20048;-73
2022/03/16 01:20:53;;;;;;;33.03;20.88;;;;;;;;;;5014075;28;20037;-72
2022/03/16 01:23:19;;;;;;;35.72;21.15;;;;;;;;;;5015583;28;20113;-72
2022/03/16 01:25:44;;;;;;;31.95;19.77;;;;;;;;;;5015224;28;20046;-73
2022/03/16 01:28:10;;;;;;;32.85;20.83;;;;;;;;;;5015286;28;20103;-73
2022/03/16 01:30:35;;;;;;;30.33;18.25;;;;;;;;;;5017510;28;20032;-73
2022/03/16 01:33:00;;;;;;;35.83;22.48;;;;;;;;;;5018995;28;21056;-73
2022/03/16 01:35:26;;;;;;;40.53;22.77;;;;;;;;;;5018556;28;20033;-73
2022/03/16 01:37:56;;;;;;;36.10;23.45;;;;;;;;;;5017748;28;20127;-74
2022/03/16 01:40:24;;;;;;;39.78;23.33;;;;;;;;;;5012158;28;20029;-73
2022/03/16 01:42:50;;;;;;;41.38;23.42;;;;;;;;;;5017836;28;20186;-74
2022/03/16 01:45:15;;;;;;;41.03;24.55;;;;;;;;;;5017180;28;20811;-73
2022/03/16 01:47:43;;;;;;;36.60;21.92;;;;;;;;;;5019226;28;20030;-73
2022/03/16 01:50:09;;;;;;;46.45;26.60;;;;;;;;;;5017321;28;20048;-73
2022/03/16 01:52:35;;;;;;;43.92;26.88;;;;;;;;;;5018632;28;20469;-73
2022/03/16 01:55:04;;;;;;;41.42;25.65;;;;;;;;;;5017265;28;20040;-74
2022/03/16 01:57:34;;;;;;;42.78;27.10;;;;;;;;;;5018546;28;20056;-72
2022/03/16 01:59:59;;;;;;;49.00;26.98;;;;;;;;;;5018473;28;20226;-73
2022/03/16 02:02:24;;;;;;;45.80;27.88;;;;;;;;;;5019105;28;20036;-73
2022/03/16 02:04:49;;;;;;;48.15;28.15;;;;;;;;;;5017702;28;20224;-73
2022/03/16 02:07:15;;;;;;;44.70;28.10;;;;;;;;;;5014708;28;20049;-73
2022/03/16 02:09:41;;;;;;;47.28;26.77;;;;;;;;;;5019145;28;20112;-73
2022/03/16 02:12:06;;;;;;;47.38;27.33;;;;;;;;;;5019451;28;20438;-73
2022/03/16 02:14:31;;;;;;;44.60;26.77;;;;;;;;;;5016392;28;20024;-74
2022/03/16 02:16:58;;;;;;;38.88;25.20;;;;;;;;;;5017717;28;20029;-73
2022/03/16 02:19:24;;;;;;;40.03;25.77;;;;;;;;;;5017550;28;20037;-73
2022/03/16 02:21:56;;;;;;;41.38;25.45;;;;;;;;;;4982480;28;20059;-73
2022/03/16 02:24:29;;;;;;;40.58;24.63;;;;;;;;;;5017866;28;20078;-73
2022/03/16 02:26:54;;;;;;;47.30;25.52;;;;;;;;;;5016557;28;20059;-73
2022/03/16 02:29:20;;;;;;;40.50;25.20;;;;;;;;;;5018010;28;20056;-73
2022/03/16 02:31:46;;;;;;;46.15;27.42;;;;;;;;;;5033760;28;20127;-72
2022/03/16 02:34:11;;;;;;;45.53;27.70;;;;;;;;;;5017409;28;20040;-73
2022/03/16 02:36:36;;;;;;;48.05;27.45;;;;;;;;;;5017184;28;20100;-73
2022/03/16 02:39:02;;;;;;;49.53;28.02;;;;;;;;;;5016193;28;20029;-73
2022/03/16 02:41:27;;;;;;;49.53;29.13;;;;;;;;;;5016810;28;20521;-73
2022/03/16 02:43:53;;;;;;;44.95;29.02;;;;;;;;;;5008144;28;20025;-72
2022/03/16 02:46:18;;;;;;;49.65;28.98;;;;;;;;;;5017458;28;20116;-73
2022/03/16 02:48:44;;;;;;;50.35;30.55;;;;;;;;;;5014557;28;20128;-73
2022/03/16 02:51:09;;;;;;;48.53;29.95;;;;;;;;;;4990443;28;20337;-73
2022/03/16 02:53:35;;;;;;;50.15;30.40;;;;;;;;;;5017273;28;20464;-73
2022/03/16 02:56:00;;;;;;;51.58;30.83;;;;;;;;;;5031630;28;20362;-72
2022/03/16 02:58:25;;;;;;;50.67;30.88;;;;;;;;;;5016498;28;20073;-73
2022/03/16 03:00:51;;;;;;;53.88;31.75;;;;;;;;;;5016563;28;20051;-72
2022/03/16 03:03:19;;;;;;;54.88;31.27;;;;;;;;;;5014726;28;20052;-73
2022/03/16 03:05:45;;;;;;;57.10;32.10;;;;;;;;;;5008649;28;20702;-73
2022/03/16 03:08:10;;;;;;;54.03;31.40;;;;;;;;;;5016258;28;20291;-73
2022/03/16 03:10:35;;;;;;;48.05;30.48;;;;;;;;;;5017862;28;20441;-73
2022/03/16 03:13:01;;;;;;;52.03;31.33;;;;;;;;;;5016800;28;20497;-69
2022/03/16 03:15:29;;;;;;;52.13;31.15;;;;;;;;;;5016738;28;20032;-70
2022/03/16 03:17:54;;;;;;;52.58;31.30;;;;;;;;;;5014116;28;20045;-70
2022/03/16 03:20:19;;;;;;;49.00;30.00;;;;;;;;;;5016611;28;20028;-69
2022/03/16 03:22:45;;;;;;;48.85;28.98;;;;;;;;;;5015994;28;20696;-70
2022/03/16 03:25:12;;;;;;;48.47;29.98;;;;;;;;;;5031421;28;20549;-70
2022/03/16 03:27:37;;;;;;;43.22;27.13;;;;;;;;;;5014863;28;20071;-69
2022/03/16 03:30:03;;;;;;;44.65;27.33;;;;;;;;;;5014821;28;20013;-69
2022/03/16 03:32:29;;;;;;;46.35;28.30;;;;;;;;;;5016347;28;20054;-70
2022/03/16 03:34:55;;;;;;;46.58;27.90;;;;;;;;;;5006949;28;20068;-69
2022/03/16 03:37:21;;;;;;;44.58;27.98;;;;;;;;;;5016600;28;20052;-69
2022/03/16 03:39:47;;;;;;;44.40;27.45;;;;;;;;;;5030096;28;20238;-70
2022/03/16 03:42:13;;;;;;;47.42;27.60;;;;;;;;;;5015763;28;20025;-71
2022/03/16 03:44:39;;;;;;;47.00;27.58;;;;;;;;;;5013703;28;20098;-70
2022/03/16 03:47:08;;;;;;;44.30;27.52;;;;;;;;;;5015913;28;20295;-69
2022/03/16 03:49:34;;;;;;;47.67;27.20;;;;;;;;;;4986479;28;20032;-70
2022/03/16 03:52:00;;;;;;;46.92;27.50;;;;;;;;;;5007954;28;20322;-69
2022/03/16 03:54:28;;;;;;;41.90;26.30;;;;;;;;;;5008506;28;20653;-69
2022/03/16 03:56:53;;;;;;;44.63;26.98;;;;;;;;;;5015804;28;20037;-69
2022/03/16 03:59:20;;;;;;;49.25;28.70;;;;;;;;;;5014110;28;20063;-70
2022/03/16 04:01:47;;;;;;;48.15;27.52;;;;;;;;;;5016388;28;20039;-69
2022/03/16 04:04:13;;;;;;;45.67;27.38;;;;;;;;;;5016105;28;20094;-69
2022/03/16 04:06:39;;;;;;;53.60;29.30;;;;;;;;;;5014270;28;20987;-70
2022/03/16 04:09:05;;;;;;;49.85;30.27;;;;;;;;;;5014536;28;20029;-69
2022/03/16 04:11:33;;;;;;;51.15;29.52;;;;;;;;;;5015461;28;20380;-69
2022/03/16 04:13:58;;;;;;;47.70;30.58;;;;;;;;;;5015635;28;20045;-70
2022/03/16 04:16:24;;;;;;;51.80;32.30;;;;;;;;;;5018086;28;20449;-70
2022/03/16 04:18:52;;;;;;;49.95;31.00;;;;;;;;;;5015156;28;20025;-69
2022/03/16 04:21:17;;;;;;;59.08;32.75;;;;;;;;;;5014755;28;20033;-69
2022/03/16 04:23:42;;;;;;;53.70;32.17;;;;;;;;;;5013056;28;20058;-70
2022/03/16 04:26:08;;;;;;;51.20;32.80;;;;;;;;;;5014198;28;20041;-70
2022/03/16 04:28:36;;;;;;;52.65;32.55;;;;;;;;;;5014940;28;20203;-71
2022/03/16 04:31:02;;;;;;;50.17;32.63;;;;;;;;;;5013257;28;20030;-70
2022/03/16 04:33:32;;;;;;;55.92;34.13;;;;;;;;;;5015661;28;20099;-70
2022/03/16 04:35:57;;;;;;;50.17;33.20;;;;;;;;;;4998248;28;20791;-70
2022/03/16 04:38:23;;;;;;;59.75;36.00;;;;;;;;;;5014840;28;20082;-70
2022/03/16 04:40:48;;;;;;;62.80;35.50;;;;;;;;;;5015483;28;20418;-70
2022/03/16 04:43:13;;;;;;;57.42;35.47;;;;;;;;;;5015210;28;20525;-70
2022/03/16 04:45:39;;;;;;;60.53;36.90;;;;;;;;;;5015489;28;20037;-70
2022/03/16 04:48:08;;;;;;;66.13;37.38;;;;;;;;;;5016400;28;20702;-70
2022/03/16 04:50:35;;;;;;;62.78;37.83;;;;;;;;;;5013829;28;20025;-70
2022/03/16 04:53:00;;;;;;;63.95;37.13;;;;;;;;;;5015705;28;20032;-70
2022/03/16 04:55:26;;;;;;;60.35;36.17;;;;;;;;;;5014909;28;20773;-69
2022/03/16 04:57:51;;;;;;;62.28;35.95;;;;;;;;;;5015234;28;20029;-69
2022/03/16 05:00:17;;;;;;;62.40;36.60;;;;;;;;;;5013874;28;21900;-68
2022/03/16 05:02:45;;;;;;;61.72;37.13;;;;;;;;;;5014965;28;20048;-69
2022/03/16 05:05:10;;;;;;;61.95;36.53;;;;;;;;;;5019433;28;20029;-69
2022/03/16 05:07:36;;;;;;;56.78;35.17;;;;;;;;;;5001338;28;20057;-68
2022/03/16 05:10:05;;;;;;;60.33;35.63;;;;;;;;;;5019491;28;20253;-69
2022/03/16 05:12:36;;;;;;;62.60;35.60;;;;;;;;;;5017704;28;20197;-68
2022/03/16 05:15:01;;;;;;;55.50;34.53;;;;;;;;;;5011129;28;20037;-69
2022/03/16 05:17:26;;;;;;;61.78;36.50;;;;;;;;;;5011854;28;20201;-69
2022/03/16 05:19:54;;;;;;;57.03;35.03;;;;;;;;;;5018690;28;20119;-69
2022/03/16 05:22:19;;;;;;;59.20;35.63;;;;;;;;;;5019535;28;20025;-69
2022/03/16 05:24:48;;;;;;;58.20;36.15;;;;;;;;;;5010472;28;20038;-69
2022/03/16 05:27:13;;;;;;;59.22;36.50;;;;;;;;;;5018251;28;20055;-70
2022/03/16 05:29:38;;;;;;;59.15;36.15;;;;;;;;;;5027959;28;20029;-70
2022/03/16 05:32:04;;;;;;;59.17;35.65;;;;;;;;;;5019661;28;20046;-74
2022/03/16 05:34:29;;;;;;;56.15;34.60;;;;;;;;;;5018346;28;20040;-69
2022/03/16 05:36:54;;;;;;;58.53;35.50;;;;;;;;;;5029179;28;20211;-70
2022/03/16 05:39:20;;;;;;;54.40;35.70;;;;;;;;;;5018840;28;20041;-69
2022/03/16 05:41:45;;;;;;;56.67;35.65;;;;;;;;;;5018175;28;20108;-70
2022/03/16 05:44:13;;;;;;;53.65;33.92;;;;;;;;;;5033306;28;20102;-71
2022/03/16 05:46:39;;;;;;;55.22;34.45;;;;;;;;;;5018210;28;20041;-69
2022/03/16 05:49:06;;;;;;;62.22;36.45;;;;;;;;;;5016917;28;20505;-69
2022/03/16 05:51:33;;;;;;;56.03;35.05;;;;;;;;;;5018134;28;20029;-69
2022/03/16 05:53:59;;;;;;;57.67;35.25;;;;;;;;;;5017858;28;20028;-68
2022/03/16 05:56:24;;;;;;;55.03;33.08;;;;;;;;;;5016272;28;20653;-70
2022/03/16 05:58:49;;;;;;;49.38;32.13;;;;;;;;;;5032806;28;20081;-70
2022/03/16 06:01:14;;;;;;;59.15;34.53;;;;;;;;;;5018703;28;20061;-68
2022/03/16 06:03:40;;;;;;;55.05;33.47;;;;;;;;;;5017668;28;20037;-68
2022/03/16 06:06:05;;;;;;;57.47;33.58;;;;;;;;;;5017968;28;20027;-70
2022/03/16 06:08:30;;;;;;;63.10;33.08;;;;;;;;;;5017061;28;20054;-69
2022/03/16 06:10:56;;;;;;;56.67;33.22;;;;;;;;;;5017239;28;20100;-68
2022/03/16 06:13:25;;;;;;;52.83;32.25;;;;;;;;;;5016720;28;20025;-69
2022/03/16 06:15:50;;;;;;;52.70;30.30;;;;;;;;;;5008264;28;20170;-69
2022/03/16 06:18:15;;;;;;;50.70;30.92;;;;;;;;;;5015887;28;20569;-69
2022/03/16 06:20:41;;;;;;;48.65;29.70;;;;;;;;;;5017140;28;20060;-69
2022/03/16 06:23:06;;;;;;;50.63;29.85;;;;;;;;;;5009779;28;20051;-70
2022/03/16 06:25:33;;;;;;;47.20;28.58;;;;;;;;;;5015299;28;20036;-69
2022/03/16 06:27:59;;;;;;;44.80;29.10;;;;;;;;;;5016410;28;20030;-71
2022/03/16 06:30:25;;;;;;;43.72;27.55;;;;;;;;;;5017752;28;20095;-69
2022/03/16 06:32:50;;;;;;;42.35;26.95;;;;;;;;;;5011017;28;20029;-69
2022/03/16 06:35:16;;;;;;;39.53;25.33;;;;;;;;;;5017180;28;20041;-68
2022/03/16 06:37:42;;;;;;;38.90;24.25;;;;;;;;;;5018381;28;20368;-69
2022/03/16 06:40:08;;;;;;;38.88;23.65;;;;;;;;;;5016683;28;20066;-69
2022/03/16 06:42:33;;;;;;;41.67;23.77;;;;;;;;;;5014299;28;20045;-70
2022/03/16 06:45:01;;;;;;;34.90;22.48;;;;;;;;;;5006236;28;20450;-68
2022/03/16 06:47:26;;;;;;;34.25;22.00;;;;;;;;;;5016628;28;20533;-69
2022/03/16 06:49:52;;;;;;;31.98;22.23;;;;;;;;;;5016196;28;20044;-69
2022/03/16 06:52:20;;;;;;;32.55;21.27;;;;;;;;;;5014427;28;20036;-68
2022/03/16 06:54:45;;;;;;;32.50;20.92;;;;;;;;;;5007855;28;20033;-68
2022/03/16 06:57:11;;;;;;;35.55;22.52;;;;;;;;;;5010567;28;20036;-68
2022/03/16 06:59:36;;;;;;;32.88;21.27;;;;;;;;;;5016740;28;20029;-68
2022/03/16 07:02:06;;;;;;;31.10;21.20;;;;;;;;;;5014726;28;20029;-69
2022/03/16 07:04:32;;;;;;;29.02;20.55;;;;;;;;;;5012269;28;20051;-68
2022/03/16 07:06:58;;;;;;;28.35;19.38;;;;;;;;;;5015655;28;20029;-69
2022/03/16 07:09:23;;;;;;;27.55;18.98;;;;;;;;;;5015729;28;20041;-69
2022/03/16 07:11:48;;;;;;;28.77;19.48;;;;;;;;;;5029738;28;20036;-68
2022/03/16 07:14:32;;;;;;;26.70;18.42;;;;;;;;;;5016149;28;20021;-69
2022/03/16 07:16:58;;;;;;;26.95;18.15;;;;;;;;;;5014902;28;20044;-69
2022/03/16 07:19:24;;;;;;;27.63;17.83;;;;;;;;;;5016718;28;20025;-69
2022/03/16 07:21:49;;;;;;;27.02;18.17;;;;;;;;;;5015370;28;20037;-71
2022/03/16 07:24:15;;;;;;;26.60;17.70;;;;;;;;;;5015442;28;20048;-70
2022/03/16 07:26:40;;;;;;;26.63;17.60;;;;;;;;;;5015864;28;20036;-70
2022/03/16 07:29:06;;;;;;;25.30;17.48;;;;;;;;;;4997303;28;20021;-70
2022/03/16 07:31:31;;;;;;;25.42;17.35;;;;;;;;;;5016055;28;20041;-69
2022/03/16 07:34:00;;;;;;;26.17;16.77;;;;;;;;;;5015135;28;20074;-69
2022/03/16 07:36:26;;;;;;;24.70;16.45;;;;;;;;;;5014481;28;20388;-69
2022/03/16 07:38:51;;;;;;;23.83;16.00;;;;;;;;;;5031012;28;20021;-69
2022/03/16 07:41:17;;;;;;;24.70;16.25;;;;;;;;;;5014439;28;20672;-68
2022/03/16 07:43:42;;;;;;;21.27;15.27;;;;;;;;;;5012735;28;20073;-70
2022/03/16 07:46:10;;;;;;;26.00;15.88;;;;;;;;;;4986670;28;20048;-69
2022/03/16 07:48:38;;;;;;;23.23;15.23;;;;;;;;;;5014137;28;22018;-70
2022/03/16 07:51:07;;;;;;;23.88;15.80;;;;;;;;;;5012954;28;20051;-68
2022/03/16 07:53:32;;;;;;;19.88;15.38;;;;;;;;;;5021988;28;20044;-69
2022/03/16 07:55:58;;;;;;;21.67;15.38;;;;;;;;;;5015612;28;20538;-69
2022/03/16 07:58:25;;;;;;;23.00;16.45;;;;;;;;;;5016348;28;20017;-69
2022/03/16 08:00:51;;;;;;;22.15;15.43;;;;;;;;;;5014163;28;20026;-70
2022/03/16 08:03:16;;;;;;;21.55;14.90;;;;;;;;;;5014393;28;20325;-69
2022/03/16 08:05:47;;;;;;;22.20;15.43;;;;;;;;;;5014877;28;20116;-69
2022/03/16 08:08:14;;;;;;;22.35;15.73;;;;;;;;;;5016283;28;20331;-69
2022/03/16 08:10:40;;;;;;;23.13;14.95;;;;;;;;;;5016139;28;20024;-69
2022/03/16 08:13:06;;;;;;;21.90;14.73;;;;;;;;;;5013839;28;20064;-69
2022/03/16 08:15:34;;;;;;;23.55;15.07;;;;;;;;;;5025730;28;20030;-69
2022/03/16 08:18:00;;;;;;;22.08;14.77;;;;;;;;;;5016554;28;20164;-68
2022/03/16 08:20:25;;;;;;;22.73;15.15;;;;;;;;;;5015178;28;20657;-69
2022/03/16 08:22:54;;;;;;;20.55;15.30;;;;;;;;;;5029810;28;20138;-69
2022/03/16 08:25:19;;;;;;;28.65;15.13;;;;;;;;;;4989925;28;20421;-68
2022/03/16 08:27:44;;;;;;;20.67;14.75;;;;;;;;;;5015929;28;20032;-69
2022/03/16 08:30:13;;;;;;;22.48;15.25;;;;;;;;;;5016340;28;20030;-69
2022/03/16 08:32:40;;;;;;;20.65;14.43;;;;;;;;;;5008472;28;20725;-69
2022/03/16 08:35:06;;;;;;;20.17;14.50;;;;;;;;;;5013105;28;20036;-70
2022/03/16 08:37:31;;;;;;;18.30;13.45;;;;;;;;;;5013703;28;20048;-73
2022/03/16 08:39:57;;;;;;;21.73;12.90;;;;;;;;;;5011319;28;22562;-69
2022/03/16 08:42:24;;;;;;;19.33;12.82;;;;;;;;;;5017103;28;20659;-68
2022/03/16 08:44:53;;;;;;;18.55;12.95;;;;;;;;;;5011839;28;20463;-69
2022/03/16 08:47:20;;;;;;;20.42;13.20;;;;;;;;;;5012648;28;20440;-68
2022/03/16 08:49:50;;;;;;;15.80;12.32;;;;;;;;;;5018593;28;20132;-67
2022/03/16 08:52:15;;;;;;;15.60;11.57;;;;;;;;;;5016644;28;20416;-69
2022/03/16 08:54:44;;;;;;;18.45;11.52;;;;;;;;;;5019016;28;20102;-69
2022/03/16 08:57:10;;;;;;;22.55;11.35;;;;;;;;;;5019424;28;20201;-68
2022/03/16 08:59:36;;;;;;;16.33;11.00;;;;;;;;;;5017365;28;20542;-68
2022/03/16 09:02:01;;;;;;;15.20;11.13;;;;;;;;;;5018711;28;20060;-69
2022/03/16 09:04:31;;;;;;;16.08;11.32;;;;;;;;;;5018416;28;20441;-69
2022/03/16 09:06:59;;;;;;;17.92;12.15;;;;;;;;;;4994783;28;20025;-68
2022/03/16 09:09:25;;;;;;;19.05;12.93;;;;;;;;;;5015475;28;20064;-70
2022/03/16 09:11:50;;;;;;;16.88;11.50;;;;;;;;;;5016362;28;20499;-70
2022/03/16 09:14:16;;;;;;;18.67;11.98;;;;;;;;;;5015730;28;20036;-68
2022/03/16 09:16:42;;;;;;;18.25;12.43;;;;;;;;;;5032232;28;20029;-68
2022/03/16 09:19:08;;;;;;;19.88;12.35;;;;;;;;;;5015693;28;20029;-69
2022/03/16 09:21:33;;;;;;;20.83;12.32;;;;;;;;;;5016798;28;20110;-68
2022/03/16 09:23:59;;;;;;;17.15;11.73;;;;;;;;;;5016360;28;20036;-69
2022/03/16 09:26:28;;;;;;;15.85;11.40;;;;;;;;;;5015095;28;20033;-68
2022/03/16 09:28:55;;;;;;;16.50;11.52;;;;;;;;;;5007811;28;21493;-69
2022/03/16 09:31:21;;;;;;;15.65;11.32;;;;;;;;;;5015244;28;20178;-69
2022/03/16 09:33:48;;;;;;;14.45;11.00;;;;;;;;;;5009644;28;20041;-68
2022/03/16 09:36:17;;;;;;;15.50;11.10;;;;;;;;;;5015425;28;20036;-71
2022/03/16 09:38:42;;;;;;;15.75;10.57;;;;;;;;;;5016331;28;20130;-71
2022/03/16 09:41:07;;;;;;;13.02;9.88;;;;;;;;;;5016881;28;21715;-71
2022/03/16 09:43:35;;;;;;;14.60;10.35;;;;;;;;;;5014784;28;20201;-72
2022/03/16 09:46:04;;;;;;;13.75;9.30;;;;;;;;;;5015205;28;20029;-72
2022/03/16 09:48:31;;;;;;;15.18;9.45;;;;;;;;;;5015529;28;20628;-71
2022/03/16 09:50:58;;;;;;;14.20;9.13;;;;;;;;;;5016294;28;20029;-71
2022/03/16 09:53:23;;;;;;;13.45;9.10;;;;;;;;;;5016002;28;20496;-70
2022/03/16 09:55:52;;;;;;;12.45;8.63;;;;;;;;;;5007661;28;20040;-72
2022/03/16 09:58:20;;;;;;;11.75;8.02;;;;;;;;;;5016329;28;20370;-72
2022/03/16 10:00:45;;;;;;;13.57;8.48;;;;;;;;;;4993623;28;20322;-72
2022/03/16 10:03:12;;;;;;;13.25;9.05;;;;;;;;;;5017186;28;20032;-72
2022/03/16 10:05:40;;;;;;;11.20;7.75;;;;;;;;;;5016835;28;20110;-71
2022/03/16 10:08:08;;;;;;;16.48;8.32;;;;;;;;;;5015737;28;20053;-69
2022/03/16 10:13:21;;;;;;;11.73;8.68;;;;;;;;;;5017212;28;20032;-71
2022/03/16 10:16:07;;;;;;;11.02;8.70;;;;;;;;;;5016781;28;20102;-72
2022/03/16 10:18:32;;;;;;;15.93;8.63;;;;;;;;;;5015891;28;20517;-69
2022/03/16 10:20:58;;;;;;;14.50;8.80;;;;;;;;;;5017294;28;20025;-72
2022/03/16 10:23:28;;;;;;;13.85;9.07;;;;;;;;;;4992272;28;20122;-71
2022/03/16 10:25:55;;;;;;;12.52;8.60;;;;;;;;;;5016976;28;20588;-69
2022/03/16 10:28:23;;;;;;;12.00;8.82;;;;;;;;;;5017029;28;20141;-70
2022/03/16 10:31:06;;;;;;;13.43;9.57;;;;;;;;;;5015681;28;20029;-71
2022/03/16 10:33:53;;;;;;;12.40;8.27;;;;;;;;;;5017867;28;20033;-72
2022/03/16 10:36:22;;;;;;;10.82;7.88;;;;;;;;;;5016423;28;20653;-69
2022/03/16 10:38:51;;;;;;;10.95;8.02;;;;;;;;;;5017733;28;20495;-69
2022/03/16 10:46:49;;;;;;;10.70;6.55;;;;;;;;;;5017524;28;20179;-68
2022/03/16 10:49:20;;;;;;;10.32;6.55;;;;;;;;;;5017137;28;20067;-69
2022/03/16 10:51:46;;;;;;;10.40;7.13;;;;;;;;;;5027138;28;20052;-68
2022/03/16 10:54:14;;;;;;;17.33;8.32;;;;;;;;;;5026730;28;20025;-67
2022/03/16 10:56:40;;;;;;;14.40;8.02;;;;;;;;;;5017395;28;20045;-68
2022/03/16 10:59:05;;;;;;;11.88;8.18;;;;;;;;;;5017406;28;20033;-69
2022/03/16 11:01:33;;;;;;;14.70;8.85;;;;;;;;;;5008821;28;20029;-69
2022/03/16 11:03:58;;;;;;;13.25;8.43;;;;;;;;;;5016827;28;20037;-68
2022/03/16 11:06:27;;;;;;;14.65;8.88;;;;;;;;;;5015981;28;20100;-69
2022/03/16 11:08:54;;;;;;;13.45;9.50;;;;;;;;;;5008793;28;20319;-69
2022/03/16 11:14:04;;;;;;;12.18;8.23;;;;;;;;;;5016901;28;20032;-68
2022/03/16 11:16:33;;;;;;;15.07;9.38;;;;;;;;;;5009323;28;20025;-69
2022/03/16 11:18:59;;;;;;;11.20;8.07;;;;;;;;;;5010525;28;20071;-69
2022/03/16 11:21:36;;;;;;;12.75;8.00;;;;;;;;;;5014521;28;20487;-69
2022/03/16 11:24:16;;;;;;;11.52;8.73;;;;;;;;;;5015241;28;20033;-69
2022/03/16 11:27:10;;;;;;;13.27;7.90;;;;;;;;;;5015325;28;20029;-69
2022/03/16 11:29:41;;;;;;;13.45;8.13;;;;;;;;;;5013925;28;20055;-69
2022/03/16 11:32:07;;;;;;;11.30;8.00;;;;;;;;;;5016631;28;20266;-69
2022/03/16 11:34:34;;;;;;;11.70;8.55;;;;;;;;;;5016180;28;20493;-69
2022/03/16 11:37:01;;;;;;;13.30;8.68;;;;;;;;;;5014125;28;20416;-69
2022/03/16 11:39:37;;;;;;;15.40;9.65;;;;;;;;;;4985852;28;20494;-68
2022/03/16 11:42:06;;;;;;;13.90;9.20;;;;;;;;;;5014882;28;20044;-68
2022/03/16 11:44:33;;;;;;;11.55;7.95;;;;;;;;;;5014166;28;20021;-68
2022/03/16 11:47:10;;;;;;;12.55;8.00;;;;;;;;;;5015061;28;20039;-68
2022/03/16 11:49:38;;;;;;;12.63;8.35;;;;;;;;;;5014945;28;20029;-68
2022/03/16 11:52:08;;;;;;;13.63;9.35;;;;;;;;;;5004525;28;20060;-68
2022/03/16 11:54:41;;;;;;;14.60;9.05;;;;;;;;;;5014094;28;20536;-68
2022/03/16 11:57:07;;;;;;;18.15;9.75;;;;;;;;;;5014527;28;20025;-68
2022/03/16 11:59:34;;;;;;;12.10;8.15;;;;;;;;;;5013516;28;20465;-69
2022/03/16 12:02:06;;;;;;;10.95;8.00;;;;;;;;;;5014329;28;20028;-69
2022/03/16 12:04:38;;;;;;;11.75;8.60;;;;;;;;;;5014549;28;20269;-69
2022/03/16 12:07:06;;;;;;;12.10;9.05;;;;;;;;;;5013109;28;20029;-68
2022/03/16 12:09:31;;;;;;;15.50;10.65;;;;;;;;;;5013506;28;20038;-70
2022/03/16 12:14:57;;;;;;;12.27;8.57;;;;;;;;;;5014620;28;20268;-69
2022/03/16 12:17:25;;;;;;;15.98;9.93;;;;;;;;;;5023020;28;21813;-70
2022/03/16 12:20:12;;;;;;;11.85;9.43;;;;;;;;;;5014139;28;20291;-69
2022/03/16 12:22:39;;;;;;;16.65;9.65;;;;;;;;;;5014844;28;20033;-69
2022/03/16 12:25:26;;;;;;;15.98;10.38;;;;;;;;;;5013380;28;20044;-69
2022/03/16 12:30:41;;;;;;;12.93;9.98;;;;;;;;;;5015054;28;20035;-69
2022/03/16 12:33:06;;;;;;;14.02;9.95;;;;;;;;;;5014758;28;20333;-71
2022/03/16 12:35:33;;;;;;;13.30;10.52;;;;;;;;;;5014661;28;20056;-70
2022/03/16 12:37:59;;;;;;;16.35;9.77;;;;;;;;;;5015469;28;20951;-70
2022/03/16 12:40:26;;;;;;;13.63;10.48;;;;;;;;;;5014488;28;20680;-70
2022/03/16 12:42:53;;;;;;;14.30;10.05;;;;;;;;;;5006171;28;20406;-70
2022/03/16 12:45:21;;;;;;;18.05;10.60;;;;;;;;;;5014215;28;20405;-69
2022/03/16 12:47:54;;;;;;;15.35;10.70;;;;;;;;;;5012253;28;20029;-68
2022/03/16 12:50:19;;;;;;;13.63;10.52;;;;;;;;;;5016495;28;20223;-69
2022/03/16 12:52:50;;;;;;;13.85;10.35;;;;;;;;;;5014795;28;20037;-69
2022/03/16 12:55:18;;;;;;;12.30;9.73;;;;;;;;;;5013406;28;20122;-69
2022/03/16 12:57:56;;;;;;;12.00;9.98;;;;;;;;;;5009013;28;20082;-69
2022/03/16 13:00:30;;;;;;;15.98;10.48;;;;;;;;;;5014942;28;20029;-69
2022/03/16 13:03:10;;;;;;;13.20;10.60;;;;;;;;;;5013036;28;20026;-68
2022/03/16 13:05:37;;;;;;;16.88;11.63;;;;;;;;;;5013177;28;20100;-70
2022/03/16 13:08:04;;;;;;;15.15;10.73;;;;;;;;;;5007940;28;20045;-70
2022/03/16 13:11:14;;;;;;;14.38;10.95;;;;;;;;;;5016166;28;20033;-69
2022/03/16 13:13:19;;;;;;;19.80;11.20;;;;;;;;;;5014861;28;20767;-69
2022/03/16 13:15:49;;;;;;;15.70;11.38;;;;;;;;;;5012313;28;20036;-70
2022/03/16 13:18:30;;;;;;;13.57;10.43;;;;;;;;;;5013035;28;20087;-69
2022/03/16 13:20:56;;;;;;;14.77;11.43;;;;;;;;;;5012355;28;20142;-69
2022/03/16 13:23:32;;;;;;;16.23;11.60;;;;;;;;;;5029580;28;20036;-69
2022/03/16 13:26:06;;;;;;;15.60;10.70;;;;;;;;;;5017145;28;20161;-69
2022/03/16 13:28:33;;;;;;;14.68;10.95;;;;;;;;;;5017436;28;20113;-69
2022/03/16 13:30:58;;;;;;;16.35;11.38;;;;;;;;;;5016914;28;20484;-70
2022/03/16 13:33:27;;;;;;;14.95;10.63;;;;;;;;;;5011161;28;20080;-72
2022/03/16 13:36:12;;;;;;;14.52;11.00;;;;;;;;;;5017943;28;20588;-69
2022/03/16 13:38:38;;;;;;;15.10;11.25;;;;;;;;;;5010130;28;20021;-69
2022/03/16 13:41:13;;;;;;;14.95;11.38;;;;;;;;;;5011169;28;20026;-69
2022/03/16 13:43:39;;;;;;;15.77;10.77;;;;;;;;;;5017532;28;20821;-69
2022/03/16 13:46:13;;;;;;;14.85;11.25;;;;;;;;;;5011143;28;20027;-69
2022/03/16 13:48:39;;;;;;;15.65;11.57;;;;;;;;;;5018423;28;20152;-71
2022/03/16 13:51:06;;;;;;;15.75;11.65;;;;;;;;;;4990748;28;20090;-69
2022/03/16 13:53:47;;;;;;;17.25;11.38;;;;;;;;;;5017852;28;20043;-71
2022/03/16 13:56:21;;;;;;;16.38;12.07;;;;;;;;;;5018672;28;20029;-68
2022/03/16 13:58:53;;;;;;;17.13;12.00;;;;;;;;;;5032175;28;20121;-69
2022/03/16 14:01:20;;;;;;;15.02;11.68;;;;;;;;;;5017397;28;20160;-71
2022/03/16 14:04:00;;;;;;;16.20;12.00;;;;;;;;;;5016774;28;20171;-70
2022/03/16 14:06:34;;;;;;;14.75;11.52;;;;;;;;;;5017866;28;20067;-69
2022/03/16 14:09:02;;;;;;;18.52;12.27;;;;;;;;;;5017536;28;20064;-71
2022/03/16 14:11:37;;;;;;;18.25;11.75;;;;;;;;;;5017660;28;20060;-70
2022/03/16 14:14:09;;;;;;;16.30;10.93;;;;;;;;;;5016735;28;20055;-68
2022/03/16 14:16:38;;;;;;;17.08;11.95;;;;;;;;;;5018119;28;20036;-70
2022/03/16 14:19:23;;;;;;;17.10;11.65;;;;;;;;;;5016465;28;20167;-71
2022/03/16 14:21:51;;;;;;;19.08;11.90;;;;;;;;;;5028842;28;20234;-70
2022/03/16 14:24:17;;;;;;;17.50;12.20;;;;;;;;;;5018027;28;20033;-70
2022/03/16 14:26:42;;;;;;;18.58;11.40;;;;;;;;;;5030940;28;20040;-70
2022/03/16 14:29:10;;;;;;;17.27;12.13;;;;;;;;;;5032306;28;20080;-71
2022/03/16 14:31:37;;;;;;;17.45;12.30;;;;;;;;;;5017429;28;20488;-70
2022/03/16 14:34:05;;;;;;;18.70;12.70;;;;;;;;;;5017054;28;20036;-69
2022/03/16 14:36:32;;;;;;;15.45;12.50;;;;;;;;;;5015189;28;20044;-70